Terminal Aerodrome Forecast
Issued by NWS

Home | Current Version | Previous Version | Text Only | Print | Product List | Glossary Off
Versions: 1 2 3 4 5 6 7 8 9 10 11 12 13 14 15 16 17 18 19 20 21 22 23 24 25 26 27 28 29 30

969
FTUS43 KLOT 201127
TAFORD
TAF
KORD 201127Z 2012/2118 06009KT 2SM -SHRA BR OVC004
      TEMPO 2012/2014 1SM -SHRADZ BR OVC004
     FM201400 08006KT 1 1/2SM -DZ BR OVC003
     FM201800 11005KT 4SM BR OVC006
     FM210300 13006KT 1SM -DZ BR OVC004
     FM211400 16010KT 3SM BR OVC006=

USA.gov is the U.S. government's official web portal to all federal, state and local government web resources and services.